Time;durP1;ratioP1;P1;durP2;ratioP2;P2;SDS_P1;SDS_P2;PMS_P1;PMS_P2;Temp;Humidity;BMP_temperature;BMP_pressure;BME280_temperature;BME280_humidity;BME280_pressure;Samples;Min_cycle;Max_cycle;Signal;HPM_P1;HPM_P2
2024/04/22 00:01:54;;;;;;;9.43;7.50;;;;;;;2.01;95.36;95872.06;5428632;26;20574;-82
2024/04/22 00:04:20;;;;;;;11.13;7.43;;;;;;;2.10;95.47;95868.97;5434099;26;20788;-82
2024/04/22 00:06:45;;;;;;;10.03;7.47;;;;;;;2.13;94.59;95873.13;5435680;26;20328;-84
2024/04/22 00:09:12;;;;;;;10.13;7.07;;;;;;;1.99;95.75;95868.78;5394810;26;20656;-85
2024/04/22 00:11:37;;;;;;;11.33;8.10;;;;;;;1.98;95.67;95864.56;5392168;26;20733;-83
2024/04/22 00:14:02;;;;;;;9.53;7.70;;;;;;;2.19;95.09;95867.63;5404830;26;20264;-81
2024/04/22 00:16:28;;;;;;;10.27;7.60;;;;;;;1.93;95.73;95861.44;5434067;26;20667;-81
2024/04/22 00:18:53;;;;;;;10.93;8.20;;;;;;;2.23;94.91;95858.88;5430781;26;20251;-82
2024/04/22 00:21:18;;;;;;;11.87;7.40;;;;;;;1.88;96.40;95860.91;5394787;26;20247;-82
2024/04/22 00:23:44;;;;;;;9.83;7.43;;;;;;;2.10;95.57;95860.47;5430602;26;20247;-83
2024/04/22 00:26:09;;;;;;;10.37;8.20;;;;;;;2.15;94.84;95869.56;5428584;26;20239;-85
2024/04/22 00:28:35;;;;;;;13.77;8.17;;;;;;;2.35;94.04;95863.25;5427365;26;20305;-84
2024/04/22 00:31:00;;;;;;;9.80;7.83;;;;;;;2.34;94.06;95869.31;5439505;26;20242;-85
2024/04/22 00:33:25;;;;;;;9.93;7.03;;;;;;;2.42;93.48;95867.13;5446562;26;20234;-85
2024/04/22 00:35:55;;;;;;;12.73;8.67;;;;;;;2.23;94.19;95859.69;5426614;26;20467;-82
2024/04/22 00:38:20;;;;;;;11.40;7.77;;;;;;;2.32;93.84;95867.75;5427786;26;20240;-82
2024/04/22 00:40:45;;;;;;;10.73;7.80;;;;;;;2.16;94.64;95870.38;5394635;26;20722;-83
2024/04/22 00:43:11;;;;;;;10.17;7.87;;;;;;;2.19;95.00;95865.88;5426595;26;20234;-82
2024/04/22 00:45:36;;;;;;;8.10;7.20;;;;;;;2.14;95.09;95869.66;5428745;26;20316;-84
2024/04/22 00:48:01;;;;;;;8.63;7.73;;;;;;;2.14;95.09;95864.53;5454094;26;20223;-82
2024/04/22 00:50:27;;;;;;;11.03;8.33;;;;;;;1.91;96.08;95866.66;5412180;26;20289;-84
2024/04/22 00:52:53;;;;;;;10.00;7.80;;;;;;;2.18;95.40;95866.81;5443062;26;20289;-85
2024/04/22 00:55:18;;;;;;;14.13;8.90;;;;;;;2.17;95.76;95864.34;5404145;26;20243;-84
2024/04/22 00:57:43;;;;;;;10.30;8.07;;;;;;;2.25;94.84;95865.53;5449446;26;20293;-83
2024/04/22 01:00:09;;;;;;;10.97;7.83;;;;;;;2.19;94.58;95865.88;5436540;26;20269;-83
2024/04/22 01:02:35;;;;;;;11.27;8.10;;;;;;;2.15;95.45;95866.16;5434180;26;20280;-83
2024/04/22 01:05:01;;;;;;;11.23;8.30;;;;;;;2.34;94.60;95860.78;5434165;26;20231;-85
2024/04/22 01:07:27;;;;;;;10.93;8.33;;;;;;;2.19;95.24;95868.44;5397899;26;20292;-85
2024/04/22 01:09:52;;;;;;;11.33;8.00;;;;;;;1.96;95.52;95867.22;5437947;26;20285;-85
2024/04/22 01:12:18;;;;;;;11.63;8.17;;;;;;;1.94;96.68;95863.94;5440831;26;20239;-84
2024/04/22 01:14:43;;;;;;;11.60;9.03;;;;;;;2.33;94.94;95859.16;5433947;26;20290;-82
2024/04/22 01:17:08;;;;;;;11.53;8.13;;;;;;;2.24;95.30;95857.94;5435733;26;20323;-83
2024/04/22 01:19:34;;;;;;;10.23;8.00;;;;;;;2.08;95.98;95867.44;5405552;26;20239;-84
2024/04/22 01:21:59;;;;;;;12.90;8.97;;;;;;;1.93;97.28;95864.00;5397399;26;20251;-81
2024/04/22 01:24:24;;;;;;;12.03;8.40;;;;;;;2.03;97.13;95861.72;5432016;26;20271;-84
2024/04/22 01:26:50;;;;;;;11.83;9.23;;;;;;;2.15;96.24;95851.63;5433829;26;20290;-83
2024/04/22 01:29:15;;;;;;;10.20;7.83;;;;;;;1.96;96.58;95856.97;5426778;26;20556;-81
2024/04/22 01:31:41;;;;;;;11.80;8.83;;;;;;;2.26;95.55;95853.56;5426125;26;20288;-85
2024/04/22 01:34:06;;;;;;;12.83;8.63;;;;;;;2.18;95.99;95846.31;5435495;26;20280;-83
2024/04/22 01:36:31;;;;;;;9.73;8.23;;;;;;;2.19;95.88;95850.50;5430170;26;20251;-83
2024/04/22 01:38:57;;;;;;;14.30;9.13;;;;;;;1.96;97.04;95848.47;5432868;26;20234;-84
2024/04/22 01:41:22;;;;;;;11.40;8.60;;;;;;;2.10;96.66;95843.38;5401407;26;20247;-85
2024/04/22 01:43:48;;;;;;;10.67;8.37;;;;;;;2.29;95.74;95858.50;5444462;26;20239;-83
2024/04/22 01:46:13;;;;;;;11.33;8.10;;;;;;;2.40;95.01;95845.88;5434184;26;20244;-85
2024/04/22 01:48:38;;;;;;;11.87;8.63;;;;;;;2.32;94.88;95848.06;5436053;26;20583;-86
2024/04/22 01:51:04;;;;;;;10.40;8.20;;;;;;;2.42;94.56;95840.66;5436842;26;20242;-83
2024/04/22 01:53:29;;;;;;;11.57;8.50;;;;;;;2.31;95.49;95843.03;5412198;26;20245;-84
2024/04/22 01:55:56;;;;;;;11.30;8.30;;;;;;;2.36;95.25;95839.28;5392702;26;20588;-85
2024/04/22 01:58:21;;;;;;;12.63;8.07;;;;;;;2.41;94.65;95844.97;5441379;26;20546;-84
2024/04/22 02:00:47;;;;;;;10.77;8.63;;;;;;;2.41;94.40;95847.53;5430949;26;20255;-85
2024/04/22 02:03:12;;;;;;;9.97;8.27;;;;;;;2.43;94.63;95850.81;5434258;26;20351;-84
2024/04/22 02:05:38;;;;;;;12.77;8.97;;;;;;;2.45;94.74;95854.13;5435816;26;20277;-85
2024/04/22 02:08:04;;;;;;;10.53;9.07;;;;;;;2.36;94.92;95849.53;5451208;26;20234;-85
2024/04/22 02:10:29;;;;;;;11.40;9.60;;;;;;;2.36;95.19;95844.41;5397547;26;20268;-84
2024/04/22 02:12:54;;;;;;;13.10;9.07;;;;;;;2.42;95.06;95838.09;5405408;26;20246;-84
2024/04/22 02:15:20;;;;;;;14.00;10.40;;;;;;;2.35;95.33;95847.88;5402459;26;20269;-83
2024/04/22 02:17:45;;;;;;;12.37;9.70;;;;;;;2.44;95.31;95837.09;5444849;26;20684;-85
2024/04/22 02:20:10;;;;;;;12.37;10.00;;;;;;;2.38;94.94;95845.13;5409418;26;20319;-83
2024/04/22 02:22:35;;;;;;;14.30;9.30;;;;;;;2.20;95.18;95839.34;5439531;26;20234;-85
2024/04/22 02:25:01;;;;;;;13.20;9.73;;;;;;;2.44;95.20;95841.38;5440195;26;20274;-86
2024/04/22 02:27:26;;;;;;;12.23;9.50;;;;;;;2.02;96.36;95845.53;5430196;26;20290;-84
2024/04/22 02:29:51;;;;;;;11.60;9.93;;;;;;;1.87;98.21;95847.25;5401116;26;20236;-84
2024/04/22 02:32:20;;;;;;;13.37;10.57;;;;;;;2.13;96.84;95835.53;5421794;26;20246;-84
2024/04/22 02:34:46;;;;;;;12.80;10.53;;;;;;;2.01;97.57;95838.78;5434809;26;20231;-84
2024/04/22 02:37:11;;;;;;;12.10;9.67;;;;;;;1.90;98.03;95843.69;5402114;26;20608;-85
2024/04/22 02:39:36;;;;;;;14.90;10.23;;;;;;;2.04;97.13;95840.34;5430915;26;20277;-83
2024/04/22 02:42:02;;;;;;;15.13;9.20;;;;;;;2.18;96.45;95836.06;5400599;26;20242;-85
2024/04/22 02:44:27;;;;;;;13.73;10.97;;;;;;;1.75;97.92;95836.88;5434541;26;20242;-84
2024/04/22 02:46:55;;;;;;;11.30;9.77;;;;;;;1.84;97.98;95841.47;5400343;26;20592;-85
2024/04/22 02:49:21;;;;;;;11.53;9.47;;;;;;;1.98;97.47;95839.78;5436775;26;20330;-84
2024/04/22 02:51:46;;;;;;;12.00;9.73;;;;;;;1.49;98.83;95841.72;5433827;26;20248;-85
2024/04/22 02:54:11;;;;;;;14.10;9.90;;;;;;;1.76;98.39;95841.91;5415714;26;20753;-84
2024/04/22 02:56:36;;;;;;;11.63;9.60;;;;;;;2.08;96.79;95836.69;5423637;26;20622;-83
2024/04/22 02:59:02;;;;;;;11.73;9.80;;;;;;;2.05;96.18;95836.88;5399466;26;20243;-84
2024/04/22 03:01:28;;;;;;;11.33;9.77;;;;;;;1.77;97.72;95842.72;5427215;26;20242;-84
2024/04/22 03:03:54;;;;;;;10.60;8.90;;;;;;;1.63;97.26;95851.22;5427432;26;20240;-83
2024/04/22 03:06:19;;;;;;;11.40;9.17;;;;;;;1.78;96.78;95841.84;5435518;26;20857;-84
2024/04/22 03:08:44;;;;;;;12.87;9.13;;;;;;;1.74;98.02;95835.22;5415466;26;20849;-85
2024/04/22 03:11:10;;;;;;;10.93;8.33;;;;;;;1.81;97.00;95833.97;5429343;26;20234;-85
2024/04/22 03:13:35;;;;;;;10.87;8.90;;;;;;;1.64;97.50;95833.19;5399713;26;20247;-82
2024/04/22 03:16:00;;;;;;;12.63;9.50;;;;;;;1.52;98.38;95831.34;5402455;26;20259;-84
2024/04/22 03:18:26;;;;;;;11.73;9.00;;;;;;;1.69;97.97;95828.66;5440114;26;20285;-83
2024/04/22 03:20:51;;;;;;;13.97;9.17;;;;;;;1.41;98.74;95829.38;5387231;26;20248;-82
2024/04/22 03:23:16;;;;;;;11.80;8.80;;;;;;;1.23;100.00;95824.41;5423589;26;20242;-84
2024/04/22 03:25:42;;;;;;;16.80;9.17;;;;;;;1.47;99.54;95827.38;5431771;26;20286;-84
2024/04/22 03:28:07;;;;;;;11.50;9.40;;;;;;;1.40;98.77;95820.03;5428051;26;20323;-84
2024/04/22 03:30:32;;;;;;;9.50;8.30;;;;;;;1.42;98.94;95820.78;5432225;26;20885;-82
2024/04/22 03:32:58;;;;;;;9.73;8.47;;;;;;;1.42;98.19;95825.91;5398455;26;20335;-83
2024/04/22 03:35:23;;;;;;;9.87;8.60;;;;;;;1.53;98.52;95822.75;5430678;26;20325;-83
2024/04/22 03:37:48;;;;;;;11.43;8.33;;;;;;;1.51;96.95;95823.75;5400624;26;20269;-84
2024/04/22 03:40:13;;;;;;;10.80;8.63;;;;;;;1.35;97.79;95811.78;5429414;26;20272;-83
2024/04/22 03:42:39;;;;;;;12.57;8.83;;;;;;;1.48;97.17;95816.22;5397282;26;20270;-84
2024/04/22 03:45:04;;;;;;;12.93;8.13;;;;;;;1.56;97.57;95821.72;5443214;26;20278;-84
2024/04/22 03:50:14;;;;;;;12.50;9.90;;;;;;;1.42;97.97;95822.53;5428164;26;20273;-82
2024/04/22 03:52:39;;;;;;;14.13;8.30;;;;;;;1.13;98.67;95824.09;5424944;26;20247;-85
2024/04/22 03:55:04;;;;;;;12.33;7.60;;;;;;;1.40;97.96;95830.25;5397783;26;20278;-83
2024/04/22 03:57:30;;;;;;;10.90;8.67;;;;;;;1.39;97.08;95823.50;5438201;26;20235;-82
2024/04/22 03:59:55;;;;;;;13.00;8.57;;;;;;;1.51;97.44;95823.75;5437876;26;20233;-85
2024/04/22 04:02:20;;;;;;;12.00;7.87;;;;;;;1.34;96.56;95817.00;5431447;26;20250;-84
2024/04/22 04:04:46;;;;;;;8.57;7.03;;;;;;;1.32;96.99;95819.63;5427427;26;20778;-82
2024/04/22 04:07:11;;;;;;;8.43;7.00;;;;;;;1.31;96.82;95829.94;5398733;26;20330;-83
2024/04/22 04:09:36;;;;;;;10.53;7.60;;;;;;;1.39;95.41;95822.66;5443016;26;20282;-83
2024/04/22 04:12:02;;;;;;;9.87;7.17;;;;;;;1.34;96.33;95824.69;5394306;26;20243;-84
2024/04/22 04:14:27;;;;;;;10.00;7.00;;;;;;;1.34;96.12;95829.78;5431341;26;20969;-85
2024/04/22 04:16:53;;;;;;;9.57;6.80;;;;;;;1.46;94.92;95826.53;5424607;26;20250;-83
2024/04/22 04:19:18;;;;;;;8.23;6.77;;;;;;;1.38;94.53;95821.84;5392636;26;20255;-83
2024/04/22 04:21:43;;;;;;;8.77;6.50;;;;;;;1.14;95.65;95820.63;5424842;26;20289;-84
2024/04/22 04:24:08;;;;;;;8.67;6.03;;;;;;;1.25;95.19;95823.44;5430789;26;20225;-82
2024/04/22 04:26:34;;;;;;;8.43;6.17;;;;;;;1.17;94.65;95815.38;5428203;26;20225;-85
2024/04/22 04:28:59;;;;;;;8.40;6.93;;;;;;;1.18;94.61;95819.56;5427453;26;20244;-84
2024/04/22 04:31:24;;;;;;;8.83;7.10;;;;;;;1.18;93.83;95819.56;5390516;26;20280;-84
2024/04/22 04:33:50;;;;;;;8.27;6.17;;;;;;;1.18;94.62;95827.25;5403271;26;20238;-83
2024/04/22 04:36:15;;;;;;;9.10;7.13;;;;;;;1.04;95.35;95824.59;5399624;26;20231;-83
2024/04/22 04:38:40;;;;;;;7.60;6.43;;;;;;;1.08;95.06;95826.09;5398267;26;20712;-82
2024/04/22 04:41:06;;;;;;;8.20;6.63;;;;;;;0.97;94.63;95834.38;5395595;26;20269;-84
2024/04/22 04:43:31;;;;;;;8.67;7.13;;;;;;;0.90;95.50;95832.22;5392212;26;20321;-84
2024/04/22 04:45:57;;;;;;;7.77;6.83;;;;;;;1.13;94.42;95829.22;5432022;26;20247;-82
2024/04/22 04:48:23;;;;;;;7.97;6.33;;;;;;;1.22;93.71;95841.50;5392438;26;20270;-82
2024/04/22 04:50:49;;;;;;;9.60;6.40;;;;;;;1.13;94.06;95830.03;5403226;26;20249;-82
2024/04/22 04:53:15;;;;;;;8.07;6.20;;;;;;;1.02;94.55;95832.38;5400999;26;20281;-83
2024/04/22 04:55:41;;;;;;;7.93;5.93;;;;;;;1.33;93.54;95834.09;5397444;26;20243;-83
2024/04/22 04:58:07;;;;;;;6.77;5.93;;;;;;;1.02;94.68;95831.53;5394351;26;20569;-83
2024/04/22 05:00:33;;;;;;;7.47;5.87;;;;;;;1.83;92.94;95840.66;5428273;26;20319;-83
2024/04/22 05:02:58;;;;;;;8.47;5.37;;;;;;;3.22;86.19;95837.47;5426675;26;20338;-83
2024/04/22 05:05:23;;;;;;;6.47;5.00;;;;;;;4.05;81.54;95835.53;5394559;26;20248;-84
2024/04/22 05:07:50;;;;;;;5.43;4.53;;;;;;;4.56;76.54;95845.84;5440367;26;20234;-82
2024/04/22 05:10:15;;;;;;;4.53;3.80;;;;;;;3.92;76.09;95845.81;5389300;26;20246;-81
2024/04/22 05:12:41;;;;;;;6.37;3.97;;;;;;;3.23;78.36;95856.25;5432105;26;20320;-84
2024/04/22 05:15:06;;;;;;;6.20;4.30;;;;;;;2.91;81.73;95848.78;5424622;26;20242;-83
2024/04/22 05:17:32;;;;;;;7.63;4.10;;;;;;;2.22;83.49;95846.97;5430779;26;20238;-83
2024/04/22 05:19:57;;;;;;;5.10;4.33;;;;;;;2.17;84.44;95839.53;5426865;26;20621;-80
2024/04/22 05:22:22;;;;;;;8.50;4.63;;;;;;;1.91;85.38;95838.47;5432105;26;20281;-82
2024/04/22 05:24:48;;;;;;;4.67;4.17;;;;;;;1.90;85.88;95847.06;5438148;26;20766;-83
2024/04/22 05:27:13;;;;;;;6.07;4.53;;;;;;;1.84;87.11;95847.41;5398954;26;20254;-81
2024/04/22 05:29:38;;;;;;;5.60;4.40;;;;;;;2.06;85.75;95846.22;5392992;26;20262;-82
2024/04/22 05:32:04;;;;;;;6.27;4.27;;;;;;;1.81;86.13;95847.59;5435129;26;20359;-84
2024/04/22 05:37:13;;;;;;;5.80;4.57;;;;;;;1.54;87.13;95847.41;5427310;26;20367;-82
2024/04/22 05:39:38;;;;;;;6.43;4.90;;;;;;;1.63;87.95;95843.53;5428879;26;20265;-84
2024/04/22 05:42:05;;;;;;;5.73;4.57;;;;;;;1.83;87.71;95845.78;5432458;26;20229;-83
2024/04/22 05:44:31;;;;;;;5.40;4.60;;;;;;;1.82;87.83;95851.81;5422483;26;20295;-84
2024/04/22 05:46:56;;;;;;;6.10;4.63;;;;;;;1.86;86.71;95845.63;5399197;26;20249;-84
2024/04/22 05:49:22;;;;;;;6.57;5.00;;;;;;;1.72;86.69;95853.25;5438754;26;20232;-81
2024/04/22 05:51:47;;;;;;;5.90;4.87;;;;;;;1.89;86.73;95850.56;5433221;26;20242;-81
2024/04/22 05:54:13;;;;;;;5.50;4.80;;;;;;;1.84;86.07;95851.72;5434810;26;20285;-83
2024/04/22 05:56:38;;;;;;;5.63;4.70;;;;;;;1.95;85.75;95850.22;5436326;26;20373;-83
2024/04/22 05:59:08;;;;;;;6.50;4.30;;;;;;;1.64;86.29;95851.13;5403250;26;20239;-83
2024/04/22 06:01:33;;;;;;;5.30;4.63;;;;;;;2.02;85.98;95855.78;5426864;26;20273;-81
2024/04/22 06:03:59;;;;;;;5.90;4.07;;;;;;;2.21;85.11;95855.56;5413138;26;20239;-83
2024/04/22 06:06:24;;;;;;;7.07;4.40;;;;;;;2.08;85.38;95859.75;5387936;26;20246;-83
2024/04/22 06:08:49;;;;;;;5.20;4.30;;;;;;;1.94;86.66;95866.50;5430391;26;20245;-83
2024/04/22 06:11:14;;;;;;;6.07;4.27;;;;;;;1.94;86.56;95865.66;5421532;26;20353;-84
2024/04/22 06:13:40;;;;;;;6.53;4.70;;;;;;;2.11;86.56;95864.69;5394807;26;20654;-80
2024/04/22 06:16:06;;;;;;;6.03;4.40;;;;;;;2.09;86.47;95861.38;5396335;26;20274;-82
2024/04/22 06:18:31;;;;;;;5.00;3.83;;;;;;;1.89;85.51;95863.34;5394015;26;20252;-84
2024/04/22 06:20:56;;;;;;;6.33;5.03;;;;;;;2.14;85.79;95864.53;5391760;26;20244;-81
2024/04/22 06:23:22;;;;;;;4.93;4.10;;;;;;;1.70;85.09;95867.88;5404632;26;20232;-85
2024/04/22 06:25:47;;;;;;;7.30;5.00;;;;;;;1.81;86.29;95867.25;5407100;26;20231;-84
2024/04/22 06:28:12;;;;;;;7.23;4.47;;;;;;;1.92;85.93;95864.91;5385343;26;20460;-83
2024/04/22 06:30:38;;;;;;;7.27;4.20;;;;;;;2.34;85.13;95859.06;5391642;26;20243;-84
2024/04/22 06:33:03;;;;;;;5.83;4.60;;;;;;;1.96;86.02;95866.41;5419034;26;20227;-83
2024/04/22 06:35:29;;;;;;;6.23;4.63;;;;;;;1.86;86.88;95871.22;5416788;26;20236;-82
2024/04/22 06:37:54;;;;;;;4.70;4.20;;;;;;;2.06;85.79;95859.00;5427208;26;20828;-83
2024/04/22 06:40:21;;;;;;;4.20;3.80;;;;;;;2.57;83.63;95870.53;5431902;26;20235;-82
2024/04/22 06:42:47;;;;;;;3.73;3.40;;;;;;;2.92;81.09;95867.59;5436299;26;20223;-82
2024/04/22 06:45:12;;;;;;;4.33;3.30;;;;;;;4.10;76.63;95868.66;5382727;26;20369;-83
2024/04/22 06:47:37;;;;;;;5.70;3.20;;;;;;;5.19;72.32;95870.66;5430534;26;20333;-82
2024/04/22 06:50:03;;;;;;;3.77;3.10;;;;;;;5.69;68.08;95867.09;5429850;26;21134;-81
2024/04/22 06:52:28;;;;;;;5.77;3.00;;;;;;;5.64;68.22;95876.09;5423944;26;20255;-84
2024/04/22 06:54:53;;;;;;;4.47;3.33;;;;;;;5.68;66.64;95875.78;5418457;26;20232;-84
2024/04/22 06:57:19;;;;;;;7.40;3.17;;;;;;;5.68;67.41;95868.03;5413351;26;20240;-82
2024/04/22 06:59:46;;;;;;;4.40;3.20;;;;;;;5.92;65.71;95870.66;5396342;26;20233;-82
2024/04/22 07:02:11;;;;;;;4.67;2.90;;;;;;;5.01;67.75;95871.94;5418644;26;20234;-83
2024/04/22 07:04:37;;;;;;;4.00;3.10;;;;;;;3.80;70.88;95876.59;5413071;26;20300;-82
2024/04/22 07:07:02;;;;;;;4.67;3.30;;;;;;;4.08;73.17;95873.91;5390240;26;20887;-83
2024/04/22 07:09:28;;;;;;;4.83;3.70;;;;;;;3.08;75.58;95879.34;5400139;26;20348;-80
2024/04/22 07:11:53;;;;;;;3.83;3.43;;;;;;;3.80;74.53;95874.88;5415958;26;20248;-82
2024/04/22 07:14:21;;;;;;;7.93;3.97;;;;;;;3.24;75.80;95886.13;5418976;26;20239;-82
2024/04/22 07:16:53;;;;;;;5.03;4.37;;;;;;;2.97;77.75;95888.63;5424048;26;20665;-84
2024/04/22 07:19:18;;;;;;;5.10;3.80;;;;;;;3.31;77.49;95882.25;5433241;26;20773;-82
2024/04/22 07:21:44;;;;;;;5.30;4.10;;;;;;;3.44;77.07;95880.56;5416080;26;20239;-82
2024/04/22 07:24:09;;;;;;;5.80;3.97;;;;;;;3.68;77.58;95879.03;5395311;26;20604;-83
2024/04/22 07:26:34;;;;;;;7.40;4.73;;;;;;;3.66;77.45;95885.19;5392328;26;20299;-83
2024/04/22 07:29:00;;;;;;;6.80;4.03;;;;;;;3.61;75.96;95879.50;5395609;26;20255;-82
2024/04/22 07:31:25;;;;;;;4.73;4.10;;;;;;;3.77;75.39;95879.38;5420378;26;20670;-84
2024/04/22 07:33:51;;;;;;;4.30;3.20;;;;;;;3.86;74.30;95877.03;5439886;26;20234;-82
2024/04/22 07:36:36;;;;;;;4.80;3.67;;;;;;;3.75;73.79;95879.47;5416023;26;20287;-82
2024/04/22 07:39:03;;;;;;;6.03;4.10;;;;;;;3.94;73.46;95879.09;5425002;26;20250;-83
2024/04/22 07:41:29;;;;;;;4.03;3.63;;;;;;;3.57;74.86;95880.63;5423531;26;20722;-84
2024/04/22 07:43:55;;;;;;;7.13;4.50;;;;;;;3.83;72.27;95876.41;5431857;26;20238;-84
2024/04/22 07:46:23;;;;;;;5.87;3.53;;;;;;;3.81;72.11;95891.94;5417298;26;20621;-82
2024/04/22 07:48:48;;;;;;;3.63;3.27;;;;;;;3.57;71.69;95884.03;5431295;26;20331;-83
2024/04/22 07:51:14;;;;;;;4.07;3.67;;;;;;;3.51;69.76;95876.69;5421518;26;20234;-83
2024/04/22 07:53:40;;;;;;;5.43;3.90;;;;;;;4.02;72.39;95887.16;5426537;26;22154;-84
2024/04/22 07:56:15;;;;;;;4.47;3.83;;;;;;;4.05;69.00;95886.13;5389955;26;20296;-85
2024/04/22 07:58:45;;;;;;;5.70;3.67;;;;;;;4.34;67.68;95877.34;5436314;26;20335;-85
2024/04/22 08:01:14;;;;;;;7.17;3.40;;;;;;;4.62;66.54;95885.78;5393568;26;20287;-83
2024/04/22 08:03:40;;;;;;;5.43;3.20;;;;;;;4.89;69.21;95883.91;5393521;26;20247;-85
2024/04/22 08:06:10;;;;;;;4.07;3.43;;;;;;;4.35;69.83;95886.69;5423627;26;20253;-84
2024/04/22 08:08:38;;;;;;;5.17;3.37;;;;;;;4.11;67.04;95888.28;5390310;26;20570;-85
2024/04/22 08:11:04;;;;;;;4.27;3.53;;;;;;;3.62;68.68;95889.72;5435528;26;20770;-84
2024/04/22 08:13:29;;;;;;;5.23;4.00;;;;;;;3.96;68.20;95884.97;5399686;26;20249;-86
2024/04/22 08:15:54;;;;;;;6.23;3.80;;;;;;;4.31;67.53;95887.81;5412289;26;20242;-85
2024/04/22 08:18:20;;;;;;;3.53;2.90;;;;;;;4.39;65.72;95889.88;5421619;26;20941;-85
2024/04/22 08:20:45;;;;;;;4.17;3.07;;;;;;;4.22;64.63;95888.41;5388787;26;20239;-86
2024/04/22 08:23:10;;;;;;;5.27;3.37;;;;;;;4.02;65.95;95887.16;5420282;26;20240;-86
2024/04/22 08:25:36;;;;;;;5.33;3.43;;;;;;;3.90;64.34;95890.53;5424320;26;20342;-86
2024/04/22 08:28:01;;;;;;;5.90;3.47;;;;;;;4.48;66.01;95894.41;5427760;26;20251;-84
2024/04/22 08:30:30;;;;;;;4.50;3.23;;;;;;;4.82;64.15;95896.38;5381534;26;20827;-85
2024/04/22 08:32:55;;;;;;;6.37;3.93;;;;;;;4.75;62.62;95889.97;5377789;26;20849;-84
2024/04/22 08:35:20;;;;;;;4.77;3.47;;;;;;;4.96;63.44;95892.88;5405361;26;20291;-85
2024/04/22 08:37:46;;;;;;;4.20;3.00;;;;;;;4.75;61.67;95897.69;5418597;26;20235;-85
2024/04/22 08:40:11;;;;;;;5.53;3.47;;;;;;;4.64;64.53;95894.22;5391486;26;20336;-84
2024/04/22 08:42:38;;;;;;;3.70;3.20;;;;;;;4.59;61.97;95891.09;5426407;26;20584;-86
2024/04/22 08:45:05;;;;;;;4.67;3.20;;;;;;;4.17;62.05;95901.59;5435981;26;20927;-85
2024/04/22 08:47:30;;;;;;;6.77;3.67;;;;;;;4.44;63.38;95888.66;5425040;26;20251;-85
2024/04/22 08:49:56;;;;;;;5.60;3.13;;;;;;;4.59;62.15;95893.69;5389423;26;20308;-85
2024/04/22 08:52:21;;;;;;;3.87;3.17;;;;;;;4.43;61.37;95901.63;5422255;26;20732;-85
2024/04/22 08:54:46;;;;;;;3.27;2.93;;;;;;;4.29;60.06;95894.81;5397084;26;20289;-84
2024/04/22 08:57:12;;;;;;;6.00;2.97;;;;;;;4.68;60.71;95886.19;5385849;26;20249;-86
2024/04/22 08:59:37;;;;;;;4.30;3.70;;;;;;;5.07;59.85;95892.13;5389077;26;20274;-86
2024/04/22 09:02:04;;;;;;;5.03;3.30;;;;;;;5.18;60.34;95887.03;5396922;26;20251;-84
2024/04/22 09:04:29;;;;;;;4.50;3.20;;;;;;;5.40;61.05;95892.38;5414793;26;20240;-83
2024/04/22 09:06:55;;;;;;;5.23;2.93;;;;;;;4.88;61.63;95889.16;5427610;26;20284;-84
2024/04/22 09:09:21;;;;;;;3.30;3.00;;;;;;;5.12;61.23;95887.47;5411621;26;20662;-84
2024/04/22 09:11:50;;;;;;;5.33;3.23;;;;;;;5.15;59.23;95889.03;5396930;26;20354;-82
2024/04/22 09:14:16;;;;;;;3.40;3.03;;;;;;;5.24;58.78;95889.22;5396772;26;20246;-86
2024/04/22 09:16:41;;;;;;;3.10;2.40;;;;;;;5.67;57.78;95888.78;5429389;26;20294;-86
2024/04/22 09:19:07;;;;;;;2.80;2.37;;;;;;;6.68;55.82;95883.94;5431737;26;20241;-84
2024/04/22 09:21:37;;;;;;;3.57;2.50;;;;;;;6.52;56.19;95882.50;5398393;26;20249;-86
2024/04/22 09:24:02;;;;;;;3.17;2.80;;;;;;;7.38;55.07;95881.94;5401829;26;20279;-83
2024/04/22 09:26:33;;;;;;;5.43;3.53;;;;;;;6.57;56.97;95882.19;5425640;26;20640;-86
2024/04/22 09:29:00;;;;;;;5.17;3.70;;;;;;;6.85;56.27;95874.94;5407090;26;20275;-85
2024/04/22 09:31:26;;;;;;;4.47;3.07;;;;;;;6.26;57.09;95888.78;5431907;26;20290;-85
2024/04/22 09:33:53;;;;;;;3.90;2.93;;;;;;;6.46;55.91;95872.69;5410114;26;20233;-84
2024/04/22 09:36:19;;;;;;;7.60;5.77;;;;;;;6.97;54.65;95885.13;5427001;26;20242;-85
2024/04/22 09:38:45;;;;;;;4.07;3.17;;;;;;;6.89;54.66;95882.34;5422027;26;20227;-85
2024/04/22 09:41:11;;;;;;;4.10;2.50;;;;;;;6.68;50.89;95871.88;5434263;26;20284;-86
2024/04/22 09:43:37;;;;;;;2.87;2.67;;;;;;;7.13;52.98;95878.81;5400729;26;20323;-85
2024/04/22 09:46:03;;;;;;;2.73;2.33;;;;;;;7.00;50.08;95882.34;5389535;26;20248;-84
2024/04/22 09:48:32;;;;;;;4.60;2.90;;;;;;;7.47;51.51;95867.50;5397522;26;20263;-84
2024/04/22 09:50:59;;;;;;;5.67;3.40;;;;;;;7.49;49.12;95885.44;5412205;26;20277;-84
2024/04/22 09:53:27;;;;;;;5.23;3.33;;;;;;;7.52;51.36;95875.72;5427719;26;20278;-84
2024/04/22 09:55:54;;;;;;;3.30;2.90;;;;;;;6.67;48.51;95877.97;5431911;26;20235;-85
2024/04/22 09:58:22;;;;;;;3.57;2.33;;;;;;;6.26;49.63;95868.16;5433275;26;20271;-85
2024/04/22 10:00:47;;;;;;;3.83;3.03;;;;;;;6.71;49.04;95868.22;5428755;26;20277;-83
2024/04/22 10:03:13;;;;;;;4.10;2.50;;;;;;;6.74;48.63;95878.34;5430595;26;20230;-84
2024/04/22 10:05:39;;;;;;;3.27;2.63;;;;;;;6.55;47.95;95871.16;5420114;26;20325;-82
2024/04/22 10:08:06;;;;;;;4.37;3.67;;;;;;;6.25;48.40;95863.94;5424552;26;20273;-85
2024/04/22 10:10:31;;;;;;;2.73;2.27;;;;;;;5.85;48.73;95874.56;5389786;26;20753;-82
2024/04/22 10:13:07;;;;;;;2.80;2.50;;;;;;;5.83;49.14;95865.28;5430357;26;20321;-85
2024/04/22 10:15:33;;;;;;;3.17;2.27;;;;;;;5.48;49.56;95868.66;5418484;26;20866;-84
2024/04/22 10:18:08;;;;;;;3.00;2.63;;;;;;;5.27;49.36;95875.28;5427982;26;20276;-83
2024/04/22 10:20:35;;;;;;;2.90;2.50;;;;;;;5.90;49.76;95854.44;5427051;26;20250;-86
2024/04/22 10:23:04;;;;;;;3.90;2.57;;;;;;;5.65;50.84;95862.25;5434512;26;20328;-85
2024/04/22 10:25:30;;;;;;;3.10;2.80;;;;;;;5.92;50.80;95864.66;5429504;26;20309;-84
2024/04/22 10:27:55;;;;;;;3.10;2.80;;;;;;;5.93;52.08;95866.31;5429062;26;20238;-86
2024/04/22 10:30:35;;;;;;;3.50;2.80;;;;;;;6.17;50.19;95861.09;5421839;26;20238;-85
2024/04/22 10:33:00;;;;;;;4.77;3.33;;;;;;;6.47;50.63;95856.25;5403078;26;20622;-85
2024/04/22 10:35:26;;;;;;;3.77;3.30;;;;;;;6.42;50.81;95857.53;5425327;26;20232;-84
2024/04/22 10:37:51;;;;;;;2.87;2.60;;;;;;;6.58;49.81;95862.38;5441909;26;20270;-84
2024/04/22 10:40:16;;;;;;;3.77;2.90;;;;;;;6.15;49.48;95845.75;5437756;25;20230;-83
2024/04/22 10:42:42;;;;;;;3.57;2.60;;;;;;;5.84;50.91;95846.31;5440952;25;20230;-83
2024/04/22 10:45:07;;;;;;;3.60;2.50;;;;;;;5.86;51.14;95850.44;5421772;25;20292;-82
2024/04/22 10:47:33;;;;;;;2.80;2.27;;;;;;;6.46;50.05;95846.88;5415881;26;20253;-83
2024/04/22 10:49:59;;;;;;;2.63;2.30;;;;;;;6.76;49.61;95843.72;5415004;26;20251;-83
2024/04/22 10:52:24;;;;;;;5.33;2.70;;;;;;;6.72;51.27;95846.66;5434281;26;20248;-83
2024/04/22 10:54:50;;;;;;;3.60;2.33;;;;;;;6.62;45.59;95845.69;5442684;26;20231;-84
2024/04/22 10:57:15;;;;;;;3.07;2.20;;;;;;;6.43;47.42;95852.25;5443910;26;20241;-83
2024/04/22 10:59:40;;;;;;;4.57;2.50;;;;;;;6.62;48.04;95837.97;5443742;26;20231;-83
2024/04/22 11:02:08;;;;;;;2.23;2.03;;;;;;;6.38;46.45;95838.88;5421020;26;20261;-83
2024/04/22 11:04:34;;;;;;;4.17;2.30;;;;;;;7.41;44.24;95829.22;5440061;26;20274;-83
2024/04/22 11:06:59;;;;;;;2.73;2.50;;;;;;;8.06;46.41;95828.28;5431727;26;20243;-83
2024/04/22 11:09:26;;;;;;;2.47;2.03;;;;;;;8.39;44.35;95823.88;5418797;26;20240;-82
2024/04/22 11:11:52;;;;;;;2.63;2.43;;;;;;;8.04;45.63;95822.41;5397937;26;20244;-81
2024/04/22 11:14:17;;;;;;;2.43;2.23;;;;;;;8.16;43.63;95823.16;5403287;26;20316;-82
2024/04/22 11:16:42;;;;;;;4.80;2.40;;;;;;;8.11;44.90;95825.31;5401482;26;20277;-82
2024/04/22 11:19:08;;;;;;;3.27;2.97;;;;;;;7.21;44.95;95824.78;5440536;26;20235;-82
2024/04/22 11:21:36;;;;;;;3.07;2.50;;;;;;;6.75;45.67;95823.19;5394579;26;20280;-81
2024/04/22 11:24:02;;;;;;;3.00;2.70;;;;;;;6.69;44.58;95821.91;5432324;26;20720;-83
2024/04/22 11:26:27;;;;;;;2.60;2.40;;;;;;;6.68;45.98;95820.25;5428535;26;20336;-83
2024/04/22 11:28:55;;;;;;;3.40;2.40;;;;;;;6.73;44.37;95820.75;5427691;26;20279;-83
2024/04/22 11:31:24;;;;;;;2.57;2.20;;;;;;;6.96;44.81;95815.56;5429262;26;20301;-81
2024/04/22 11:33:50;;;;;;;1.73;1.63;;;;;;;7.14;43.63;95818.47;5431814;26;21001;-84
2024/04/22 11:36:16;;;;;;;2.10;1.83;;;;;;;6.87;45.02;95822.25;5429665;26;20348;-84
2024/04/22 11:38:41;;;;;;;4.53;2.20;;;;;;;6.72;45.40;95815.69;5420209;26;20232;-84